Hovedside
METAR-TAF:

METAR-TAF

Lufthavner :

Seinäjoki-Ilmajoki, Finland

Seinäjoki lufthavn

breddegrad: 62-41-37N, lengdegrad: 022-49-55E, høyde over havet: 91 m

Gjeldene værobservasjon

Denne rapporten ble laget for 11 minutter siden, klokken 10:20 UTC
Vind 7 kt fra Sør-sørvest, skiftende mellom Sør-sørøst og Vest
Temperatur 13°C
Luftfuktighet 77%
Trykk 991 hPa
Sikt 10 km eller mer
Spredte skyer i en høyde av 2000 ft
Brutte skyer i en høyde av 3000 ft
Brutte skyer i en høyde av 3600 ft

METAR: EFSI 251020Z AUTO 20007KT 150V270 9999 SCT020 BKN030 BKN036 13/09 Q0991

Tid: 13:31 (10:31 UTC)


TAF: fraværende

Værobservasjoner og værvarsel for over 4000 flyplasser (METAR- og TAF-rapporter).

Tilgjengelige stasjoner er representert av de røde og gule prikkene på kartet.

Hold musepekeren over prikken for å se navnet på stasjonen.

Klikk så for å se værobservasjoner og -varsler.

For å forandre kartet kan du klikke på den grønne knappen med svart kryss for å zoome inn, på den grønne knappen med strek for å zoome ut, eller på de grønne pilene for å se tilstøtende kart.


METAR-TAF: